sensor_id;sensor_type;location;lat;lon;timestamp;P1;durP1;ratioP1;P2;durP2;ratioP2
840;SDS011;406;48.566;13.450;2022-07-23T00:01:31;12.27;;;10.93;;
840;SDS011;406;48.566;13.450;2022-07-23T00:03:56;13.80;;;12.23;;
840;SDS011;406;48.566;13.450;2022-07-23T00:06:22;14.10;;;12.07;;
840;SDS011;406;48.566;13.450;2022-07-23T00:08:48;13.60;;;11.07;;
840;SDS011;406;48.566;13.450;2022-07-23T00:11:14;13.90;;;10.40;;
840;SDS011;406;48.566;13.450;2022-07-23T00:13:40;14.10;;;12.20;;
840;SDS011;406;48.566;13.450;2022-07-23T00:16:05;14.47;;;9.97;;
840;SDS011;406;48.566;13.450;2022-07-23T00:18:31;13.77;;;11.07;;
840;SDS011;406;48.566;13.450;2022-07-23T00:20:56;12.57;;;10.67;;
840;SDS011;406;48.566;13.450;2022-07-23T00:23:22;16.57;;;10.60;;
840;SDS011;406;48.566;13.450;2022-07-23T00:25:47;14.03;;;10.60;;
840;SDS011;406;48.566;13.450;2022-07-23T00:28:13;14.47;;;11.07;;
840;SDS011;406;48.566;13.450;2022-07-23T00:30:38;16.40;;;12.07;;
840;SDS011;406;48.566;13.450;2022-07-23T00:33:05;13.70;;;11.00;;
840;SDS011;406;48.566;13.450;2022-07-23T00:35:33;13.43;;;10.03;;
840;SDS011;406;48.566;13.450;2022-07-23T00:38:00;16.60;;;11.50;;
840;SDS011;406;48.566;13.450;2022-07-23T00:40:26;16.27;;;13.90;;
840;SDS011;406;48.566;13.450;2022-07-23T00:42:52;18.37;;;14.27;;
840;SDS011;406;48.566;13.450;2022-07-23T00:45:18;14.80;;;13.17;;
840;SDS011;406;48.566;13.450;2022-07-23T00:47:44;13.27;;;11.83;;
840;SDS011;406;48.566;13.450;2022-07-23T00:50:10;16.97;;;13.70;;
840;SDS011;406;48.566;13.450;2022-07-23T00:52:36;18.53;;;11.87;;
840;SDS011;406;48.566;13.450;2022-07-23T00:55:03;16.73;;;12.97;;
840;SDS011;406;48.566;13.450;2022-07-23T00:57:29;15.87;;;13.40;;
840;SDS011;406;48.566;13.450;2022-07-23T00:59:55;15.47;;;13.07;;
840;SDS011;406;48.566;13.450;2022-07-23T01:02:21;19.63;;;12.83;;
840;SDS011;406;48.566;13.450;2022-07-23T01:04:47;16.10;;;13.70;;
840;SDS011;406;48.566;13.450;2022-07-23T01:07:12;14.33;;;11.83;;
840;SDS011;406;48.566;13.450;2022-07-23T01:09:38;17.80;;;13.47;;
840;SDS011;406;48.566;13.450;2022-07-23T01:12:03;16.07;;;12.40;;
840;SDS011;406;48.566;13.450;2022-07-23T01:14:30;19.10;;;12.80;;
840;SDS011;406;48.566;13.450;2022-07-23T01:16:56;14.60;;;11.47;;
840;SDS011;406;48.566;13.450;2022-07-23T01:19:21;16.13;;;12.83;;
840;SDS011;406;48.566;13.450;2022-07-23T01:21:48;16.20;;;13.53;;
840;SDS011;406;48.566;13.450;2022-07-23T01:24:16;18.53;;;13.60;;
840;SDS011;406;48.566;13.450;2022-07-23T01:26:53;15.57;;;13.87;;
840;SDS011;406;48.566;13.450;2022-07-23T01:29:19;16.40;;;14.57;;
840;SDS011;406;48.566;13.450;2022-07-23T01:31:46;17.67;;;13.00;;
840;SDS011;406;48.566;13.450;2022-07-23T01:34:12;16.20;;;13.20;;
840;SDS011;406;48.566;13.450;2022-07-23T01:36:38;16.73;;;13.27;;
840;SDS011;406;48.566;13.450;2022-07-23T01:39:04;17.10;;;12.43;;
840;SDS011;406;48.566;13.450;2022-07-23T01:41:30;16.77;;;13.17;;
840;SDS011;406;48.566;13.450;2022-07-23T01:43:56;16.13;;;12.50;;
840;SDS011;406;48.566;13.450;2022-07-23T01:46:22;16.30;;;13.53;;
840;SDS011;406;48.566;13.450;2022-07-23T01:48:49;13.37;;;11.80;;
840;SDS011;406;48.566;13.450;2022-07-23T01:51:34;13.77;;;11.13;;
840;SDS011;406;48.566;13.450;2022-07-23T01:54:08;14.10;;;12.03;;
840;SDS011;406;48.566;13.450;2022-07-23T01:56:34;13.30;;;11.80;;
840;SDS011;406;48.566;13.450;2022-07-23T01:59:00;14.97;;;11.80;;
840;SDS011;406;48.566;13.450;2022-07-23T02:01:25;15.10;;;13.50;;
840;SDS011;406;48.566;13.450;2022-07-23T02:03:51;15.40;;;12.43;;
840;SDS011;406;48.566;13.450;2022-07-23T02:06:16;19.43;;;14.00;;
840;SDS011;406;48.566;13.450;2022-07-23T02:08:42;16.90;;;12.70;;
840;SDS011;406;48.566;13.450;2022-07-23T02:11:07;14.80;;;12.43;;
840;SDS011;406;48.566;13.450;2022-07-23T02:13:33;16.17;;;13.20;;
840;SDS011;406;48.566;13.450;2022-07-23T02:15:59;14.83;;;13.23;;
840;SDS011;406;48.566;13.450;2022-07-23T02:18:25;15.17;;;13.57;;
840;SDS011;406;48.566;13.450;2022-07-23T02:20:50;15.90;;;12.73;;
840;SDS011;406;48.566;13.450;2022-07-23T02:23:16;19.20;;;13.27;;
840;SDS011;406;48.566;13.450;2022-07-23T02:25:41;15.97;;;12.90;;
840;SDS011;406;48.566;13.450;2022-07-23T02:28:08;14.53;;;12.10;;
840;SDS011;406;48.566;13.450;2022-07-23T02:30:34;15.53;;;12.20;;
840;SDS011;406;48.566;13.450;2022-07-23T02:33:00;18.70;;;12.50;;
840;SDS011;406;48.566;13.450;2022-07-23T02:35:25;20.10;;;11.63;;
840;SDS011;406;48.566;13.450;2022-07-23T02:37:51;15.90;;;12.80;;
840;SDS011;406;48.566;13.450;2022-07-23T02:40:17;14.40;;;12.33;;
840;SDS011;406;48.566;13.450;2022-07-23T02:42:43;15.87;;;12.80;;
840;SDS011;406;48.566;13.450;2022-07-23T02:45:09;13.20;;;11.90;;
840;SDS011;406;48.566;13.450;2022-07-23T02:47:35;13.00;;;11.60;;
840;SDS011;406;48.566;13.450;2022-07-23T02:50:00;14.77;;;11.77;;
840;SDS011;406;48.566;13.450;2022-07-23T02:52:28;13.57;;;11.50;;
840;SDS011;406;48.566;13.450;2022-07-23T02:54:53;15.83;;;13.97;;
840;SDS011;406;48.566;13.450;2022-07-23T02:57:19;13.63;;;12.20;;
840;SDS011;406;48.566;13.450;2022-07-23T02:59:44;13.03;;;11.53;;
840;SDS011;406;48.566;13.450;2022-07-23T03:02:10;14.80;;;12.10;;
840;SDS011;406;48.566;13.450;2022-07-23T03:04:36;14.27;;;12.77;;
840;SDS011;406;48.566;13.450;2022-07-23T03:07:02;14.70;;;12.43;;
840;SDS011;406;48.566;13.450;2022-07-23T03:09:27;16.97;;;13.30;;
840;SDS011;406;48.566;13.450;2022-07-23T03:11:53;17.43;;;13.70;;
840;SDS011;406;48.566;13.450;2022-07-23T03:14:19;14.60;;;11.90;;
840;SDS011;406;48.566;13.450;2022-07-23T03:16:44;15.20;;;13.40;;
840;SDS011;406;48.566;13.450;2022-07-23T03:19:10;13.70;;;12.30;;
840;SDS011;406;48.566;13.450;2022-07-23T03:21:35;15.90;;;13.00;;
840;SDS011;406;48.566;13.450;2022-07-23T03:24:06;15.80;;;13.20;;
840;SDS011;406;48.566;13.450;2022-07-23T03:26:37;14.40;;;12.73;;
840;SDS011;406;48.566;13.450;2022-07-23T03:29:02;13.37;;;11.97;;
840;SDS011;406;48.566;13.450;2022-07-23T03:31:30;13.47;;;12.03;;
840;SDS011;406;48.566;13.450;2022-07-23T03:33:56;15.40;;;13.80;;
840;SDS011;406;48.566;13.450;2022-07-23T03:36:22;14.20;;;12.50;;
840;SDS011;406;48.566;13.450;2022-07-23T03:38:50;16.20;;;13.40;;
840;SDS011;406;48.566;13.450;2022-07-23T03:41:16;14.50;;;12.20;;
840;SDS011;406;48.566;13.450;2022-07-23T03:43:43;14.77;;;12.33;;
840;SDS011;406;48.566;13.450;2022-07-23T03:46:10;17.13;;;13.90;;
840;SDS011;406;48.566;13.450;2022-07-23T03:48:35;22.10;;;12.90;;
840;SDS011;406;48.566;13.450;2022-07-23T03:51:01;14.00;;;12.60;;
840;SDS011;406;48.566;13.450;2022-07-23T03:53:26;16.37;;;13.40;;
840;SDS011;406;48.566;13.450;2022-07-23T03:55:52;13.97;;;12.47;;
840;SDS011;406;48.566;13.450;2022-07-23T03:58:17;16.30;;;14.10;;
840;SDS011;406;48.566;13.450;2022-07-23T04:00:43;18.67;;;14.80;;
840;SDS011;406;48.566;13.450;2022-07-23T04:03:08;15.10;;;13.50;;
840;SDS011;406;48.566;13.450;2022-07-23T04:05:34;14.87;;;12.63;;
840;SDS011;406;48.566;13.450;2022-07-23T04:08:05;14.47;;;12.60;;
840;SDS011;406;48.566;13.450;2022-07-23T04:10:31;14.37;;;11.00;;
840;SDS011;406;48.566;13.450;2022-07-23T04:12:56;14.50;;;12.70;;
840;SDS011;406;48.566;13.450;2022-07-23T04:15:22;17.20;;;13.10;;
840;SDS011;406;48.566;13.450;2022-07-23T04:17:47;14.87;;;12.03;;
840;SDS011;406;48.566;13.450;2022-07-23T04:20:15;17.50;;;13.07;;
840;SDS011;406;48.566;13.450;2022-07-23T04:22:47;14.20;;;12.13;;
840;SDS011;406;48.566;13.450;2022-07-23T04:25:13;16.83;;;13.60;;
840;SDS011;406;48.566;13.450;2022-07-23T04:27:41;14.87;;;12.40;;
840;SDS011;406;48.566;13.450;2022-07-23T04:30:07;16.30;;;12.77;;
840;SDS011;406;48.566;13.450;2022-07-23T04:32:33;17.00;;;13.10;;
840;SDS011;406;48.566;13.450;2022-07-23T04:35:00;14.37;;;11.80;;
840;SDS011;406;48.566;13.450;2022-07-23T04:37:25;15.87;;;13.17;;
840;SDS011;406;48.566;13.450;2022-07-23T04:39:51;14.60;;;12.83;;
840;SDS011;406;48.566;13.450;2022-07-23T04:42:16;16.50;;;12.40;;
840;SDS011;406;48.566;13.450;2022-07-23T04:44:42;15.90;;;12.40;;
840;SDS011;406;48.566;13.450;2022-07-23T04:47:08;14.33;;;12.80;;
840;SDS011;406;48.566;13.450;2022-07-23T04:49:33;17.77;;;13.70;;
840;SDS011;406;48.566;13.450;2022-07-23T04:51:59;13.60;;;12.20;;
840;SDS011;406;48.566;13.450;2022-07-23T04:54:24;15.40;;;12.80;;
840;SDS011;406;48.566;13.450;2022-07-23T04:56:50;14.37;;;12.47;;
840;SDS011;406;48.566;13.450;2022-07-23T04:59:16;16.47;;;13.40;;
840;SDS011;406;48.566;13.450;2022-07-23T05:01:42;14.20;;;12.80;;
840;SDS011;406;48.566;13.450;2022-07-23T05:04:08;14.10;;;12.70;;
840;SDS011;406;48.566;13.450;2022-07-23T05:06:36;15.10;;;13.50;;
840;SDS011;406;48.566;13.450;2022-07-23T05:09:01;14.70;;;11.77;;
840;SDS011;406;48.566;13.450;2022-07-23T05:11:28;20.57;;;13.93;;
840;SDS011;406;48.566;13.450;2022-07-23T05:13:54;16.13;;;13.17;;
840;SDS011;406;48.566;13.450;2022-07-23T05:16:20;16.10;;;14.10;;
840;SDS011;406;48.566;13.450;2022-07-23T05:18:46;14.67;;;13.07;;
840;SDS011;406;48.566;13.450;2022-07-23T05:21:12;16.37;;;13.03;;
840;SDS011;406;48.566;13.450;2022-07-23T05:23:37;13.83;;;12.43;;
840;SDS011;406;48.566;13.450;2022-07-23T05:26:03;20.40;;;13.43;;
840;SDS011;406;48.566;13.450;2022-07-23T05:28:30;13.73;;;12.07;;
840;SDS011;406;48.566;13.450;2022-07-23T05:30:56;16.67;;;12.47;;
840;SDS011;406;48.566;13.450;2022-07-23T05:33:22;14.47;;;12.73;;
840;SDS011;406;48.566;13.450;2022-07-23T05:35:48;14.43;;;12.40;;
840;SDS011;406;48.566;13.450;2022-07-23T05:38:26;12.47;;;11.17;;
840;SDS011;406;48.566;13.450;2022-07-23T05:40:53;17.13;;;11.50;;
840;SDS011;406;48.566;13.450;2022-07-23T05:43:19;13.90;;;11.47;;
840;SDS011;406;48.566;13.450;2022-07-23T05:45:44;15.57;;;11.83;;
840;SDS011;406;48.566;13.450;2022-07-23T05:48:10;13.10;;;11.40;;
840;SDS011;406;48.566;13.450;2022-07-23T05:50:44;13.43;;;12.03;;
840;SDS011;406;48.566;13.450;2022-07-23T05:53:19;13.50;;;9.90;;
840;SDS011;406;48.566;13.450;2022-07-23T05:56:11;12.57;;;10.30;;
840;SDS011;406;48.566;13.450;2022-07-23T05:58:37;14.43;;;10.93;;
840;SDS011;406;48.566;13.450;2022-07-23T06:01:03;10.53;;;8.00;;
840;SDS011;406;48.566;13.450;2022-07-23T06:03:35;12.13;;;10.93;;
840;SDS011;406;48.566;13.450;2022-07-23T06:06:00;9.77;;;8.77;;
840;SDS011;406;48.566;13.450;2022-07-23T06:08:26;10.27;;;8.63;;
840;SDS011;406;48.566;13.450;2022-07-23T06:10:52;10.47;;;9.03;;
840;SDS011;406;48.566;13.450;2022-07-23T06:13:18;11.00;;;9.30;;
840;SDS011;406;48.566;13.450;2022-07-23T06:15:43;10.60;;;8.37;;
840;SDS011;406;48.566;13.450;2022-07-23T06:18:09;9.83;;;8.63;;
840;SDS011;406;48.566;13.450;2022-07-23T06:20:34;9.83;;;8.20;;
840;SDS011;406;48.566;13.450;2022-07-23T06:23:00;9.70;;;8.63;;
840;SDS011;406;48.566;13.450;2022-07-23T06:25:27;8.83;;;7.93;;
840;SDS011;406;48.566;13.450;2022-07-23T06:27:52;8.57;;;7.07;;
840;SDS011;406;48.566;13.450;2022-07-23T06:30:18;8.77;;;7.57;;
840;SDS011;406;48.566;13.450;2022-07-23T06:32:44;7.90;;;7.10;;
840;SDS011;406;48.566;13.450;2022-07-23T06:35:10;10.87;;;8.07;;
840;SDS011;406;48.566;13.450;2022-07-23T06:37:35;8.57;;;7.07;;
840;SDS011;406;48.566;13.450;2022-07-23T06:40:01;9.10;;;8.00;;
840;SDS011;406;48.566;13.450;2022-07-23T06:42:27;8.33;;;7.00;;
840;SDS011;406;48.566;13.450;2022-07-23T06:44:57;10.00;;;7.87;;
840;SDS011;406;48.566;13.450;2022-07-23T06:47:22;7.27;;;6.57;;
840;SDS011;406;48.566;13.450;2022-07-23T06:49:48;7.90;;;6.83;;
840;SDS011;406;48.566;13.450;2022-07-23T06:52:13;8.70;;;7.83;;
840;SDS011;406;48.566;13.450;2022-07-23T06:54:39;7.83;;;6.53;;
840;SDS011;406;48.566;13.450;2022-07-23T06:57:04;15.83;;;8.40;;
840;SDS011;406;48.566;13.450;2022-07-23T06:59:30;8.10;;;7.30;;
840;SDS011;406;48.566;13.450;2022-07-23T07:01:56;8.63;;;7.33;;
840;SDS011;406;48.566;13.450;2022-07-23T07:04:22;9.67;;;7.40;;
840;SDS011;406;48.566;13.450;2022-07-23T07:06:48;8.53;;;7.57;;
840;SDS011;406;48.566;13.450;2022-07-23T07:09:13;10.07;;;7.17;;
840;SDS011;406;48.566;13.450;2022-07-23T07:11:39;7.30;;;5.90;;
840;SDS011;406;48.566;13.450;2022-07-23T07:14:04;11.80;;;8.10;;
840;SDS011;406;48.566;13.450;2022-07-23T07:16:30;8.47;;;6.73;;
840;SDS011;406;48.566;13.450;2022-07-23T07:18:55;10.87;;;7.70;;
840;SDS011;406;48.566;13.450;2022-07-23T07:21:21;9.93;;;6.70;;
840;SDS011;406;48.566;13.450;2022-07-23T07:23:46;8.73;;;6.90;;
840;SDS011;406;48.566;13.450;2022-07-23T07:26:12;9.13;;;8.23;;
840;SDS011;406;48.566;13.450;2022-07-23T07:28:37;7.67;;;6.50;;
840;SDS011;406;48.566;13.450;2022-07-23T07:31:03;7.17;;;6.40;;
840;SDS011;406;48.566;13.450;2022-07-23T07:33:28;9.20;;;7.80;;
840;SDS011;406;48.566;13.450;2022-07-23T07:35:54;6.97;;;6.37;;
840;SDS011;406;48.566;13.450;2022-07-23T07:38:19;8.47;;;7.67;;
840;SDS011;406;48.566;13.450;2022-07-23T07:40:45;8.47;;;7.67;;
840;SDS011;406;48.566;13.450;2022-07-23T07:43:10;10.03;;;7.70;;
840;SDS011;406;48.566;13.450;2022-07-23T07:45:35;10.10;;;7.63;;
840;SDS011;406;48.566;13.450;2022-07-23T07:48:01;10.60;;;7.50;;
840;SDS011;406;48.566;13.450;2022-07-23T07:50:27;8.10;;;7.00;;
840;SDS011;406;48.566;13.450;2022-07-23T07:52:52;7.00;;;6.30;;
840;SDS011;406;48.566;13.450;2022-07-23T07:55:18;8.23;;;7.43;;
840;SDS011;406;48.566;13.450;2022-07-23T07:57:44;7.63;;;6.03;;
840;SDS011;406;48.566;13.450;2022-07-23T08:00:09;7.10;;;6.40;;
840;SDS011;406;48.566;13.450;2022-07-23T08:02:48;12.07;;;8.83;;
840;SDS011;406;48.566;13.450;2022-07-23T08:05:18;8.73;;;6.50;;
840;SDS011;406;48.566;13.450;2022-07-23T08:07:44;10.10;;;8.10;;
840;SDS011;406;48.566;13.450;2022-07-23T08:10:10;9.90;;;7.80;;
840;SDS011;406;48.566;13.450;2022-07-23T08:12:43;8.60;;;7.70;;
840;SDS011;406;48.566;13.450;2022-07-23T08:15:10;9.10;;;7.57;;
840;SDS011;406;48.566;13.450;2022-07-23T08:17:36;9.80;;;8.17;;
840;SDS011;406;48.566;13.450;2022-07-23T08:20:03;9.87;;;7.43;;
840;SDS011;406;48.566;13.450;2022-07-23T08:22:46;9.07;;;7.10;;
840;SDS011;406;48.566;13.450;2022-07-23T08:25:23;8.13;;;6.23;;
840;SDS011;406;48.566;13.450;2022-07-23T08:27:51;6.30;;;4.90;;
840;SDS011;406;48.566;13.450;2022-07-23T08:30:17;6.23;;;5.63;;
840;SDS011;406;48.566;13.450;2022-07-23T08:35:22;5.87;;;5.27;;
840;SDS011;406;48.566;13.450;2022-07-23T08:37:49;5.83;;;5.03;;
840;SDS011;406;48.566;13.450;2022-07-23T08:40:14;8.33;;;6.10;;
840;SDS011;406;48.566;13.450;2022-07-23T08:42:40;6.50;;;5.00;;
840;SDS011;406;48.566;13.450;2022-07-23T08:45:07;5.00;;;4.37;;
840;SDS011;406;48.566;13.450;2022-07-23T08:47:34;11.03;;;4.87;;
840;SDS011;406;48.566;13.450;2022-07-23T08:50:02;5.17;;;4.63;;
840;SDS011;406;48.566;13.450;2022-07-23T08:52:28;4.90;;;4.40;;
840;SDS011;406;48.566;13.450;2022-07-23T08:54:55;11.63;;;5.03;;
840;SDS011;406;48.566;13.450;2022-07-23T08:57:21;6.33;;;4.80;;
840;SDS011;406;48.566;13.450;2022-07-23T08:59:47;6.73;;;5.23;;
840;SDS011;406;48.566;13.450;2022-07-23T09:02:12;8.57;;;4.10;;
840;SDS011;406;48.566;13.450;2022-07-23T09:04:38;8.93;;;5.00;;
840;SDS011;406;48.566;13.450;2022-07-23T09:07:04;7.83;;;4.20;;
840;SDS011;406;48.566;13.450;2022-07-23T09:09:29;5.03;;;4.63;;
840;SDS011;406;48.566;13.450;2022-07-23T09:12:07;5.40;;;4.57;;
840;SDS011;406;48.566;13.450;2022-07-23T09:14:41;4.67;;;4.27;;
840;SDS011;406;48.566;13.450;2022-07-23T09:17:11;4.70;;;4.30;;
840;SDS011;406;48.566;13.450;2022-07-23T09:19:37;6.33;;;5.37;;
840;SDS011;406;48.566;13.450;2022-07-23T09:22:24;5.57;;;4.20;;
840;SDS011;406;48.566;13.450;2022-07-23T09:27:49;5.23;;;3.97;;
840;SDS011;406;48.566;13.450;2022-07-23T09:30:19;8.03;;;4.90;;
840;SDS011;406;48.566;13.450;2022-07-23T09:33:08;6.80;;;5.30;;
840;SDS011;406;48.566;13.450;2022-07-23T09:35:54;4.90;;;4.40;;
840;SDS011;406;48.566;13.450;2022-07-23T09:38:23;6.53;;;4.87;;
840;SDS011;406;48.566;13.450;2022-07-23T09:43:34;8.33;;;4.20;;
840;SDS011;406;48.566;13.450;2022-07-23T09:48:56;4.60;;;4.20;;
840;SDS011;406;48.566;13.450;2022-07-23T09:51:22;5.00;;;3.70;;
840;SDS011;406;48.566;13.450;2022-07-23T09:53:54;4.80;;;4.30;;
840;SDS011;406;48.566;13.450;2022-07-23T09:56:20;4.00;;;3.50;;
840;SDS011;406;48.566;13.450;2022-07-23T09:58:46;7.10;;;4.03;;
840;SDS011;406;48.566;13.450;2022-07-23T10:01:15;5.97;;;4.70;;
840;SDS011;406;48.566;13.450;2022-07-23T10:03:42;4.70;;;4.20;;
840;SDS011;406;48.566;13.450;2022-07-23T10:06:30;5.80;;;4.53;;
840;SDS011;406;48.566;13.450;2022-07-23T10:09:29;4.00;;;3.60;;
840;SDS011;406;48.566;13.450;2022-07-23T10:12:13;9.53;;;3.57;;
840;SDS011;406;48.566;13.450;2022-07-23T10:14:59;4.30;;;3.90;;
840;SDS011;406;48.566;13.450;2022-07-23T10:17:27;12.10;;;4.10;;
840;SDS011;406;48.566;13.450;2022-07-23T10:19:53;5.53;;;4.10;;
840;SDS011;406;48.566;13.450;2022-07-23T10:22:33;4.70;;;3.90;;
840;SDS011;406;48.566;13.450;2022-07-23T10:25:12;4.80;;;4.30;;
840;SDS011;406;48.566;13.450;2022-07-23T10:27:55;3.77;;;3.37;;
840;SDS011;406;48.566;13.450;2022-07-23T10:36:09;5.67;;;5.10;;
840;SDS011;406;48.566;13.450;2022-07-23T10:38:43;4.80;;;4.40;;
840;SDS011;406;48.566;13.450;2022-07-23T10:41:30;5.80;;;5.17;;
840;SDS011;406;48.566;13.450;2022-07-23T10:46:36;5.13;;;3.90;;
840;SDS011;406;48.566;13.450;2022-07-23T10:49:32;5.30;;;4.73;;
840;SDS011;406;48.566;13.450;2022-07-23T10:52:31;7.50;;;5.30;;
840;SDS011;406;48.566;13.450;2022-07-23T10:57:23;5.33;;;4.83;;
840;SDS011;406;48.566;13.450;2022-07-23T11:02:25;5.27;;;4.77;;
840;SDS011;406;48.566;13.450;2022-07-23T11:04:53;5.30;;;4.80;;
840;SDS011;406;48.566;13.450;2022-07-23T11:07:19;4.53;;;4.13;;
840;SDS011;406;48.566;13.450;2022-07-23T11:09:45;4.97;;;4.50;;
840;SDS011;406;48.566;13.450;2022-07-23T11:14:58;5.23;;;4.30;;
840;SDS011;406;48.566;13.450;2022-07-23T11:17:34;4.83;;;4.00;;
840;SDS011;406;48.566;13.450;2022-07-23T11:22:36;4.83;;;4.43;;
840;SDS011;406;48.566;13.450;2022-07-23T11:25:02;5.40;;;4.90;;
840;SDS011;406;48.566;13.450;2022-07-23T11:30:06;6.83;;;5.50;;
840;SDS011;406;48.566;13.450;2022-07-23T11:32:34;5.03;;;4.53;;
840;SDS011;406;48.566;13.450;2022-07-23T11:37:53;5.80;;;5.20;;
840;SDS011;406;48.566;13.450;2022-07-23T11:40:24;4.90;;;4.40;;
840;SDS011;406;48.566;13.450;2022-07-23T11:43:00;5.90;;;5.30;;
840;SDS011;406;48.566;13.450;2022-07-23T11:45:32;5.83;;;5.23;;
840;SDS011;406;48.566;13.450;2022-07-23T11:48:02;6.00;;;5.33;;
840;SDS011;406;48.566;13.450;2022-07-23T11:50:29;5.37;;;4.90;;
840;SDS011;406;48.566;13.450;2022-07-23T11:52:55;6.40;;;4.77;;
840;SDS011;406;48.566;13.450;2022-07-23T11:55:20;5.03;;;4.57;;
840;SDS011;406;48.566;13.450;2022-07-23T11:57:47;10.70;;;5.80;;
840;SDS011;406;48.566;13.450;2022-07-23T12:00:14;7.13;;;4.47;;
840;SDS011;406;48.566;13.450;2022-07-23T12:02:42;5.10;;;4.60;;
840;SDS011;406;48.566;13.450;2022-07-23T12:05:12;6.73;;;4.10;;
840;SDS011;406;48.566;13.450;2022-07-23T12:07:40;5.73;;;4.97;;
840;SDS011;406;48.566;13.450;2022-07-23T12:12:50;5.37;;;4.77;;
840;SDS011;406;48.566;13.450;2022-07-23T12:15:20;5.47;;;4.73;;
840;SDS011;406;48.566;13.450;2022-07-23T12:17:48;4.90;;;4.40;;
840;SDS011;406;48.566;13.450;2022-07-23T12:20:21;4.90;;;4.50;;
840;SDS011;406;48.566;13.450;2022-07-23T12:22:49;5.07;;;4.57;;
840;SDS011;406;48.566;13.450;2022-07-23T12:25:17;5.10;;;4.70;;
840;SDS011;406;48.566;13.450;2022-07-23T12:27:44;7.17;;;5.57;;
840;SDS011;406;48.566;13.450;2022-07-23T12:30:17;7.30;;;5.17;;
840;SDS011;406;48.566;13.450;2022-07-23T12:32:43;6.13;;;5.47;;
840;SDS011;406;48.566;13.450;2022-07-23T12:35:10;5.20;;;4.70;;
840;SDS011;406;48.566;13.450;2022-07-23T12:37:36;6.37;;;5.73;;
840;SDS011;406;48.566;13.450;2022-07-23T12:40:19;13.77;;;5.20;;
840;SDS011;406;48.566;13.450;2022-07-23T12:42:48;5.40;;;4.90;;
840;SDS011;406;48.566;13.450;2022-07-23T12:45:15;5.40;;;4.90;;
840;SDS011;406;48.566;13.450;2022-07-23T12:48:01;6.13;;;5.53;;
840;SDS011;406;48.566;13.450;2022-07-23T12:50:40;5.07;;;4.57;;
840;SDS011;406;48.566;13.450;2022-07-23T12:53:09;7.13;;;5.03;;
840;SDS011;406;48.566;13.450;2022-07-23T12:55:37;5.10;;;4.33;;
840;SDS011;406;48.566;13.450;2022-07-23T12:58:04;5.33;;;4.90;;
840;SDS011;406;48.566;13.450;2022-07-23T13:00:31;6.00;;;5.40;;
840;SDS011;406;48.566;13.450;2022-07-23T13:02:57;5.63;;;5.13;;
840;SDS011;406;48.566;13.450;2022-07-23T13:05:22;6.10;;;5.20;;
840;SDS011;406;48.566;13.450;2022-07-23T13:07:48;8.07;;;5.50;;
840;SDS011;406;48.566;13.450;2022-07-23T13:10:13;5.67;;;5.07;;
840;SDS011;406;48.566;13.450;2022-07-23T13:12:39;5.90;;;5.07;;
840;SDS011;406;48.566;13.450;2022-07-23T13:15:04;5.83;;;5.33;;
840;SDS011;406;48.566;13.450;2022-07-23T13:17:31;5.40;;;4.90;;
840;SDS011;406;48.566;13.450;2022-07-23T13:19:56;4.73;;;4.27;;
840;SDS011;406;48.566;13.450;2022-07-23T13:22:22;4.67;;;4.27;;
840;SDS011;406;48.566;13.450;2022-07-23T13:24:47;5.13;;;4.60;;
840;SDS011;406;48.566;13.450;2022-07-23T13:27:13;5.30;;;4.60;;
840;SDS011;406;48.566;13.450;2022-07-23T13:29:39;5.10;;;4.60;;
840;SDS011;406;48.566;13.450;2022-07-23T13:32:04;6.20;;;4.80;;
840;SDS011;406;48.566;13.450;2022-07-23T13:34:30;8.23;;;4.37;;
840;SDS011;406;48.566;13.450;2022-07-23T13:36:56;5.17;;;4.53;;
840;SDS011;406;48.566;13.450;2022-07-23T13:39:21;6.37;;;4.10;;
840;SDS011;406;48.566;13.450;2022-07-23T13:41:47;6.57;;;5.60;;
840;SDS011;406;48.566;13.450;2022-07-23T13:44:12;6.93;;;4.50;;
840;SDS011;406;48.566;13.450;2022-07-23T13:46:38;6.23;;;4.40;;
840;SDS011;406;48.566;13.450;2022-07-23T13:49:03;5.07;;;4.67;;
840;SDS011;406;48.566;13.450;2022-07-23T13:51:29;6.40;;;5.90;;
840;SDS011;406;48.566;13.450;2022-07-23T13:53:54;6.80;;;6.20;;
840;SDS011;406;48.566;13.450;2022-07-23T13:56:20;5.63;;;4.90;;
840;SDS011;406;48.566;13.450;2022-07-23T13:58:45;5.00;;;4.50;;
840;SDS011;406;48.566;13.450;2022-07-23T14:01:11;7.07;;;4.90;;
840;SDS011;406;48.566;13.450;2022-07-23T14:03:36;9.53;;;6.00;;
840;SDS011;406;48.566;13.450;2022-07-23T14:06:02;4.80;;;4.20;;
840;SDS011;406;48.566;13.450;2022-07-23T14:08:28;4.50;;;3.93;;
840;SDS011;406;48.566;13.450;2022-07-23T14:10:53;7.40;;;5.13;;
840;SDS011;406;48.566;13.450;2022-07-23T14:13:19;5.53;;;5.03;;
840;SDS011;406;48.566;13.450;2022-07-23T14:15:44;4.77;;;4.27;;
840;SDS011;406;48.566;13.450;2022-07-23T14:18:10;4.83;;;4.20;;
840;SDS011;406;48.566;13.450;2022-07-23T14:20:35;7.13;;;5.20;;
840;SDS011;406;48.566;13.450;2022-07-23T14:23:01;5.60;;;4.67;;
840;SDS011;406;48.566;13.450;2022-07-23T14:25:27;5.77;;;4.70;;
840;SDS011;406;48.566;13.450;2022-07-23T14:27:53;5.97;;;5.37;;
840;SDS011;406;48.566;13.450;2022-07-23T14:30:18;6.50;;;4.80;;
840;SDS011;406;48.566;13.450;2022-07-23T14:32:44;6.30;;;5.70;;
840;SDS011;406;48.566;13.450;2022-07-23T14:35:09;8.73;;;5.20;;
840;SDS011;406;48.566;13.450;2022-07-23T14:37:35;7.10;;;4.70;;
840;SDS011;406;48.566;13.450;2022-07-23T14:40:00;6.47;;;5.33;;
840;SDS011;406;48.566;13.450;2022-07-23T14:42:26;5.47;;;4.97;;
840;SDS011;406;48.566;13.450;2022-07-23T14:44:52;6.63;;;5.37;;
840;SDS011;406;48.566;13.450;2022-07-23T14:47:17;5.70;;;5.07;;
840;SDS011;406;48.566;13.450;2022-07-23T14:49:43;6.73;;;5.50;;
840;SDS011;406;48.566;13.450;2022-07-23T14:52:08;5.70;;;5.10;;
840;SDS011;406;48.566;13.450;2022-07-23T14:54:34;5.90;;;5.30;;
840;SDS011;406;48.566;13.450;2022-07-23T14:57:00;7.20;;;5.73;;
840;SDS011;406;48.566;13.450;2022-07-23T14:59:27;5.50;;;5.00;;
840;SDS011;406;48.566;13.450;2022-07-23T15:01:53;7.67;;;5.47;;
840;SDS011;406;48.566;13.450;2022-07-23T15:04:19;6.10;;;5.57;;
840;SDS011;406;48.566;13.450;2022-07-23T15:06:45;6.17;;;5.67;;
840;SDS011;406;48.566;13.450;2022-07-23T15:09:12;5.70;;;5.10;;
840;SDS011;406;48.566;13.450;2022-07-23T15:11:39;5.47;;;4.97;;
840;SDS011;406;48.566;13.450;2022-07-23T15:14:04;7.03;;;5.90;;
840;SDS011;406;48.566;13.450;2022-07-23T15:16:30;6.03;;;5.60;;
840;SDS011;406;48.566;13.450;2022-07-23T15:18:55;5.63;;;5.13;;
840;SDS011;406;48.566;13.450;2022-07-23T15:21:21;6.50;;;5.77;;
840;SDS011;406;48.566;13.450;2022-07-23T15:23:47;6.83;;;6.13;;
840;SDS011;406;48.566;13.450;2022-07-23T15:26:12;6.97;;;6.27;;
840;SDS011;406;48.566;13.450;2022-07-23T15:28:39;7.10;;;6.23;;
840;SDS011;406;48.566;13.450;2022-07-23T15:31:05;7.10;;;5.70;;
840;SDS011;406;48.566;13.450;2022-07-23T15:33:30;8.80;;;5.80;;
840;SDS011;406;48.566;13.450;2022-07-23T15:35:56;5.33;;;4.83;;
840;SDS011;406;48.566;13.450;2022-07-23T15:38:23;5.87;;;5.40;;
840;SDS011;406;48.566;13.450;2022-07-23T15:40:49;5.40;;;4.90;;
840;SDS011;406;48.566;13.450;2022-07-23T15:43:15;5.67;;;5.07;;
840;SDS011;406;48.566;13.450;2022-07-23T15:45:40;5.80;;;5.30;;
840;SDS011;406;48.566;13.450;2022-07-23T15:48:06;5.40;;;4.90;;
840;SDS011;406;48.566;13.450;2022-07-23T15:50:31;5.83;;;5.33;;
840;SDS011;406;48.566;13.450;2022-07-23T15:52:57;5.83;;;5.33;;
840;SDS011;406;48.566;13.450;2022-07-23T15:55:23;5.93;;;5.33;;
840;SDS011;406;48.566;13.450;2022-07-23T15:57:49;6.80;;;5.30;;